Time;durP1;ratioP1;P1;durP2;ratioP2;P2;SDS_P1;SDS_P2;PMS_P1;PMS_P2;Temp;Humidity;BMP_temperature;BMP_pressure;BME280_temperature;BME280_humidity;BME280_pressure;Samples;Min_cycle;Max_cycle;Signal;HPM_P1;HPM_P2
2023/01/12 00:00:16;;;;;;;0.50;0.50;;;;;;;4.98;81.30;97234.34;29395;206;64013;-57
2023/01/12 00:00:49;;;;;;;0.50;0.50;;;;;;;4.95;81.44;97242.09;29396;263;63004;-56
2023/01/12 00:01:27;;;;;;;0.60;0.60;;;;;;;4.93;81.92;97230.75;29396;204;63009;-58
2023/01/12 00:01:58;;;;;;;0.50;0.50;;;;;;;4.92;82.01;97231.81;29396;215;63010;-57
2023/01/12 00:02:30;;;;;;;0.52;0.52;;;;;;;4.90;81.97;97233.94;29396;238;63019;-57
2023/01/12 00:03:01;;;;;;;0.52;0.52;;;;;;;4.88;81.83;97231.50;29396;272;63004;-57
2023/01/12 00:03:33;;;;;;;0.50;0.50;;;;;;;4.89;82.10;97226.94;29396;205;63026;-58
2023/01/12 00:04:06;;;;;;;0.60;0.60;;;;;;;4.89;82.15;97232.31;29395;224;64009;-57
2023/01/12 00:04:37;;;;;;;0.60;0.60;;;;;;;4.86;81.76;97233.63;29395;225;64009;-58
2023/01/12 00:05:09;;;;;;;0.50;0.50;;;;;;;4.85;81.90;97232.00;29396;224;63005;-57
2023/01/12 00:05:40;;;;;;;0.50;0.50;;;;;;;4.84;82.37;97227.72;29396;267;63009;-57
2023/01/12 00:06:13;;;;;;;0.57;0.57;;;;;;;4.86;82.28;97233.63;29396;304;63005;-58
2023/01/12 00:06:45;;;;;;;0.50;0.50;;;;;;;4.88;82.46;97234.19;29396;219;63009;-58
2023/01/12 00:07:17;;;;;;;0.50;0.50;;;;;;;4.93;82.23;97236.13;29396;200;63011;-56
2023/01/12 00:07:48;;;;;;;0.50;0.50;;;;;;;4.97;81.96;97234.59;29396;212;63009;-57
2023/01/12 00:08:23;;;;;;;0.60;0.60;;;;;;;4.99;82.07;97237.84;29397;201;63004;-57
2023/01/12 00:08:55;;;;;;;0.55;0.55;;;;;;;4.97;81.59;97235.41;29395;212;64013;-56
2023/01/12 00:09:27;;;;;;;0.50;0.50;;;;;;;4.96;81.59;97238.34;29396;250;63009;-57
2023/01/12 00:09:58;;;;;;;0.52;0.52;;;;;;;4.94;82.02;97235.06;29396;221;63009;-57
2023/01/12 00:10:29;;;;;;;0.60;0.60;;;;;;;4.95;81.72;97236.69;29396;221;63004;-56
2023/01/12 00:11:01;;;;;;;0.50;0.50;;;;;;;4.93;81.68;97228.06;29396;239;63015;-57
2023/01/12 00:11:34;;;;;;;0.50;0.50;;;;;;;4.91;81.63;97241.75;29396;229;63005;-57
2023/01/12 00:12:09;;;;;;;0.55;0.55;;;;;;;4.90;81.77;97242.00;29395;214;64014;-57
2023/01/12 00:12:40;;;;;;;0.52;0.52;;;;;;;4.92;81.69;97242.56;29399;225;63010;-57
2023/01/12 00:13:11;;;;;;;0.60;0.60;;;;;;;4.92;81.90;97242.56;29397;206;63009;-57
2023/01/12 00:13:43;;;;;;;0.50;0.50;;;;;;;4.89;81.69;97237.69;29397;298;63012;-57
2023/01/12 00:14:15;;;;;;;0.50;0.50;;;;;;;4.86;82.15;97243.56;29397;202;63009;-58
2023/01/12 00:14:46;;;;;;;0.50;0.50;;;;;;;4.83;82.30;97241.41;29397;282;63005;-58
2023/01/12 00:16:33;;;;;;;0.60;0.60;;;;;;;4.82;82.33;97248.66;29397;203;63005;-58
2023/01/12 00:16:34;;;;;;;0.57;0.57;;;;;;;4.83;82.63;97244.91;29419;222;63006;-58
2023/01/12 00:17:06;;;;;;;0.57;0.57;;;;;;;4.85;82.16;97236.59;29394;224;64013;-58
2023/01/12 00:17:37;;;;;;;0.57;0.57;;;;;;;4.84;82.18;97243.84;29395;225;63004;-66
2023/01/12 00:18:09;;;;;;;0.60;0.60;;;;;;;4.83;82.20;97244.09;29395;258;63008;-57
2023/01/12 00:18:40;;;;;;;0.60;0.60;;;;;;;4.81;82.24;97247.03;29395;218;63004;-57
2023/01/12 00:19:19;;;;;;;0.50;0.50;;;;;;;4.84;82.29;97245.72;29395;215;63009;-57
2023/01/12 00:19:50;;;;;;;0.60;0.60;;;;;;;4.83;82.05;97244.09;29395;250;63010;-57
2023/01/12 00:20:21;;;;;;;0.60;0.60;;;;;;;4.83;82.50;97233.34;29395;241;63023;-58
2023/01/12 00:20:53;;;;;;;0.60;0.60;;;;;;;4.84;82.43;97245.72;29395;216;63005;-57
2023/01/12 00:21:25;;;;;;;0.60;0.60;;;;;;;4.82;82.39;97240.59;29393;225;64013;-57
2023/01/12 00:22:04;;;;;;;0.60;0.60;;;;;;;4.83;82.46;97238.72;29395;206;63005;-57
2023/01/12 00:22:36;;;;;;;0.55;0.55;;;;;;;4.84;83.14;97240.34;29395;242;63009;-58
2023/01/12 00:23:11;;;;;;;0.50;0.50;;;;;;;4.85;82.31;97239.28;29395;239;63005;-57
2023/01/12 00:23:43;;;;;;;0.60;0.60;;;;;;;4.86;82.44;97238.19;29395;254;63017;-57
2023/01/12 00:24:18;;;;;;;0.60;0.60;;;;;;;4.88;82.41;97233.38;29395;263;63010;-58
2023/01/12 00:24:53;;;;;;;0.55;0.55;;;;;;;4.89;82.59;97227.75;29395;294;63009;-57
2023/01/12 00:25:25;;;;;;;0.50;0.50;;;;;;;4.91;82.40;97231.00;29395;241;63004;-57
2023/01/12 00:25:56;;;;;;;0.60;0.60;;;;;;;4.92;82.12;97231.81;29395;229;63008;-58
2023/01/12 00:26:27;;;;;;;0.60;0.60;;;;;;;4.90;82.34;97233.94;29393;287;64008;-58
2023/01/12 00:27:00;;;;;;;0.60;0.60;;;;;;;4.90;82.39;97229.38;29395;234;63009;-57
2023/01/12 00:27:31;;;;;;;0.52;0.52;;;;;;;4.91;82.43;97231.00;29395;251;63005;-58
2023/01/12 00:28:03;;;;;;;0.50;0.50;;;;;;;4.94;82.50;97232.38;29395;238;63009;-58
2023/01/12 00:28:36;;;;;;;0.60;0.60;;;;;;;4.98;81.78;97228.16;29395;222;63005;-57
2023/01/12 00:29:08;;;;;;;1.17;0.70;;;;;;;5.09;81.36;97231.78;29393;223;64013;-57
2023/01/12 00:29:40;;;;;;;0.60;0.60;;;;;;;5.13;81.11;97228.34;29395;202;63005;-58
2023/01/12 00:30:12;;;;;;;5.45;3.87;;;;;;;5.18;80.80;97225.72;29395;205;63009;-63
2023/01/12 00:30:43;;;;;;;0.50;0.50;;;;;;;5.20;80.71;97222.78;29395;230;63004;-58
2023/01/12 00:31:14;;;;;;;0.60;0.60;;;;;;;5.15;80.68;97223.53;29395;212;63017;-57
2023/01/12 00:31:46;;;;;;;0.60;0.60;;;;;;;5.11;80.63;97230.47;29395;199;63004;-58
2023/01/12 00:32:19;;;;;;;0.60;0.60;;;;;;;5.16;80.79;97232.41;29395;249;63009;-58
2023/01/12 00:32:52;;;;;;;0.55;0.55;;;;;;;5.20;80.47;97230.88;29395;259;63004;-57
2023/01/12 00:33:27;;;;;;;0.50;0.50;;;;;;;5.20;80.59;97234.34;29395;231;63008;-58
2023/01/12 00:33:58;;;;;;;0.55;0.55;;;;;;;5.22;80.61;97234.09;29395;217;63004;-59
2023/01/12 00:34:30;;;;;;;0.60;0.60;;;;;;;5.23;80.30;97236.53;29393;232;64014;-58
2023/01/12 00:35:01;;;;;;;0.60;0.60;;;;;;;5.26;80.27;97238.72;29395;216;63005;-62
2023/01/12 00:35:35;;;;;;;0.52;0.52;;;;;;;5.33;79.70;97238.53;29395;224;63009;-57
2023/01/12 00:36:11;;;;;;;0.52;0.52;;;;;;;5.35;79.83;97237.22;29395;197;63005;-59
2023/01/12 00:36:45;;;;;;;0.52;0.52;;;;;;;5.34;80.00;97243.66;29395;230;63009;-67
2023/01/12 00:37:18;;;;;;;0.60;0.60;;;;;;;5.32;79.84;97236.91;29395;214;63005;-61
2023/01/12 00:37:49;;;;;;;0.50;0.50;;;;;;;5.48;79.07;97240.59;29395;235;63009;-58
2023/01/12 00:38:21;;;;;;;0.60;0.60;;;;;;;5.48;78.89;97237.91;29395;204;63004;-57
2023/01/12 00:38:52;;;;;;;0.60;0.60;;;;;;;5.41;78.73;97245.38;29395;308;63017;-57
2023/01/12 00:39:23;;;;;;;0.60;0.60;;;;;;;5.43;79.46;97240.53;29395;223;63004;-61
2023/01/12 00:39:55;;;;;;;0.57;0.57;;;;;;;5.41;79.30;97239.97;29393;313;64013;-58
2023/01/12 00:40:26;;;;;;;0.60;0.60;;;;;;;5.36;79.32;97238.84;29395;266;63004;-57
2023/01/12 00:41:03;;;;;;;0.50;0.50;;;;;;;5.35;79.50;97242.59;29395;225;63008;-59
2023/01/12 00:45:49;;;;;;;0.50;0.50;;;;;;;5.32;79.76;97243.09;29395;295;63009;-58
2023/01/12 00:46:31;;;;;;;0.60;0.60;;;;;;;5.33;79.70;97239.34;29395;296;63004;-60
2023/01/12 00:47:06;;;;;;;0.60;0.60;;;;;;;5.31;79.69;97241.47;29395;261;63009;-57
2023/01/12 00:47:37;;;;;;;0.60;0.60;;;;;;;5.29;79.84;97243.59;29395;248;63009;-57
2023/01/12 00:48:12;;;;;;;0.60;0.60;;;;;;;5.31;80.42;97232.59;29395;254;63008;-58
2023/01/12 00:48:43;;;;;;;0.60;0.60;;;;;;;5.31;80.27;97240.66;29395;209;63005;-57
2023/01/12 00:49:14;;;;;;;0.60;0.60;;;;;;;5.31;80.00;97241.47;29395;208;63009;-57
2023/01/12 00:49:46;;;;;;;0.90;0.90;;;;;;;5.32;79.99;97234.22;29394;197;64009;-57
2023/01/12 00:50:18;;;;;;;0.60;0.60;;;;;;;5.31;80.12;97236.09;29395;226;63015;-58
2023/01/12 00:50:50;;;;;;;0.60;0.60;;;;;;;5.34;80.18;97230.22;29394;209;64009;-58
2023/01/12 00:51:21;;;;;;;0.50;0.50;;;;;;;5.35;80.15;97228.34;29395;229;63009;-63
2023/01/12 00:51:52;;;;;;;0.60;0.60;;;;;;;5.54;78.62;97228.84;29395;227;63005;-58
2023/01/12 00:52:23;;;;;;;0.50;0.50;;;;;;;5.56;78.60;97232.06;29395;202;63009;-56
2023/01/12 00:52:54;;;;;;;0.60;0.60;;;;;;;5.54;78.29;97228.84;29395;207;63004;-57
2023/01/12 00:53:26;;;;;;;0.50;0.50;;;;;;;5.51;78.45;97234.72;29394;225;64013;-57
2023/01/12 00:53:57;;;;;;;0.57;0.57;;;;;;;5.52;78.89;97233.66;29395;230;63004;-58
2023/01/12 00:54:28;;;;;;;0.50;0.50;;;;;;;5.65;78.47;97234.06;29395;247;63018;-59
2023/01/12 00:55:00;;;;;;;0.50;0.50;;;;;;;5.70;77.75;97236.00;29395;262;63007;-59
2023/01/12 00:55:31;;;;;;;0.50;0.50;;;;;;;5.75;77.75;97225.28;29395;217;63008;-57
2023/01/12 00:56:04;;;;;;;0.50;0.50;;;;;;;5.74;77.56;97223.66;29395;202;63005;-58
2023/01/12 00:56:37;;;;;;;0.60;0.60;;;;;;;5.69;77.69;97231.69;29395;202;63009;-57
2023/01/12 00:57:11;;;;;;;0.60;0.60;;;;;;;5.79;77.24;97218.34;29395;211;63005;-59
2023/01/12 00:57:42;;;;;;;0.50;0.50;;;;;;;5.83;77.05;97224.03;29395;197;63009;-58
2023/01/12 00:58:13;;;;;;;0.52;0.52;;;;;;;5.80;77.39;97219.97;29394;199;64009;-58
2023/01/12 00:58:45;;;;;;;0.50;0.50;;;;;;;5.80;77.69;97225.34;29395;211;63009;-59
2023/01/12 00:59:17;;;;;;;0.60;0.60;;;;;;;5.77;77.29;97228.53;29395;265;63009;-58
2023/01/12 00:59:48;;;;;;;0.50;0.50;;;;;;;5.75;77.65;97219.91;29395;241;63009;-60
2023/01/12 01:00:19;;;;;;;0.50;0.50;;;;;;;5.79;77.07;97214.81;29395;203;63014;-57
2023/01/12 01:00:50;;;;;;;0.50;0.50;;;;;;;5.77;77.41;97217.78;29395;228;63009;-58
2023/01/12 01:01:22;;;;;;;0.50;0.50;;;;;;;5.74;77.32;97215.59;29395;242;63004;-58
2023/01/12 01:01:53;;;;;;;0.50;0.50;;;;;;;5.75;77.86;97225.28;29395;287;63004;-57
2023/01/12 01:02:26;;;;;;;0.60;0.60;;;;;;;5.72;77.67;97226.59;29395;202;63004;-59
2023/01/12 01:02:57;;;;;;;0.50;0.50;;;;;;;5.72;77.75;97218.53;29394;214;64013;-57
2023/01/12 01:03:32;;;;;;;0.50;0.50;;;;;;;5.70;77.36;97219.84;29395;225;63012;-58
2023/01/12 01:04:04;;;;;;;0.50;0.50;;;;;;;5.68;77.91;97224.66;29394;197;64014;-56
2023/01/12 01:04:35;;;;;;;0.50;0.50;;;;;;;5.67;77.79;97212.28;29395;253;63005;-58
2023/01/12 01:05:07;;;;;;;0.50;0.50;;;;;;;5.67;78.01;97217.66;29395;202;63009;-57
2023/01/12 01:05:38;;;;;;;0.50;0.50;;;;;;;5.65;77.99;97225.16;29394;207;64005;-57
2023/01/12 01:06:10;;;;;;;0.50;0.50;;;;;;;5.63;78.22;97211.16;29395;258;63009;-58
2023/01/12 01:06:41;;;;;;;0.50;0.50;;;;;;;5.62;78.20;97220.28;29394;219;64009;-57
2023/01/12 01:07:14;;;;;;;0.50;0.50;;;;;;;5.60;78.11;97217.03;29394;226;64013;-57
2023/01/12 01:07:49;;;;;;;0.50;0.50;;;;;;;5.66;78.28;97211.47;29395;200;63011;-65
2023/01/12 01:08:22;;;;;;;0.50;0.50;;;;;;;5.69;77.68;97218.22;29394;206;64013;-57
2023/01/12 01:08:53;;;;;;;0.50;0.50;;;;;;;5.67;77.98;97212.28;29395;230;63004;-58
2023/01/12 01:09:26;;;;;;;0.50;0.50;;;;;;;5.65;78.05;97215.22;29395;206;63009;-56
2023/01/12 01:09:57;;;;;;;0.50;0.50;;;;;;;5.63;78.35;97216.53;29395;228;63004;-56
2023/01/12 01:10:28;;;;;;;0.50;0.50;;;;;;;5.62;78.28;97220.28;29395;223;63026;-58
2023/01/12 01:11:08;;;;;;;0.50;0.50;;;;;;;5.60;78.27;97211.66;29395;235;63005;-58
2023/01/12 01:11:40;;;;;;;0.50;0.50;;;;;;;5.59;78.33;97220.78;29395;219;63009;-58
2023/01/12 01:12:11;;;;;;;0.50;0.50;;;;;;;5.60;78.08;97222.41;29395;227;63005;-58
2023/01/12 01:12:42;;;;;;;0.50;0.50;;;;;;;5.62;78.31;97209.53;29395;221;63009;-61
2023/01/12 01:13:13;;;;;;;0.50;0.50;;;;;;;5.62;78.58;97221.09;29394;224;64009;-59
2023/01/12 01:13:45;;;;;;;0.50;0.50;;;;;;;5.63;78.51;97219.22;29394;217;64013;-58
2023/01/12 01:14:16;;;;;;;0.50;0.50;;;;;;;5.66;78.43;97214.16;29395;258;63017;-64
2023/01/12 01:14:48;;;;;;;0.50;0.50;;;;;;;5.70;77.95;97217.16;29394;240;64013;-59
2023/01/12 01:15:19;;;;;;;0.50;0.50;;;;;;;5.77;77.91;97211.56;29395;250;63004;-59
2023/01/12 01:15:50;;;;;;;0.82;0.82;;;;;;;5.89;77.55;97210.34;29395;208;63009;-58
2023/01/12 01:16:21;;;;;;;0.50;0.50;;;;;;;5.90;77.24;97217.38;29395;239;63004;-58
2023/01/12 01:16:53;;;;;;;0.50;0.50;;;;;;;5.88;77.53;97211.44;29395;246;63009;-58
2023/01/12 01:17:27;;;;;;;0.50;0.50;;;;;;;5.85;77.48;97209.25;29395;204;63004;-58
2023/01/12 01:17:59;;;;;;;0.50;0.50;;;;;;;5.82;77.77;97215.12;29395;224;63004;-58
2023/01/12 01:18:31;;;;;;;0.50;0.50;;;;;;;5.78;77.67;97219.41;29394;204;64009;-58
2023/01/12 01:19:04;;;;;;;0.50;0.50;;;;;;;5.74;78.14;97212.88;29395;295;63009;-57
2023/01/12 01:19:36;;;;;;;0.50;0.50;;;;;;;5.76;77.67;97210.75;29395;263;63011;-56
2023/01/12 01:20:09;;;;;;;0.60;0.60;;;;;;;5.77;77.38;97216.97;29395;224;63009;-58
2023/01/12 01:20:45;;;;;;;0.50;0.50;;;;;;;5.72;77.51;97207.75;29395;237;63005;-57
2023/01/12 01:21:17;;;;;;;0.50;0.50;;;;;;;5.72;78.13;97209.63;29395;264;63009;-56
2023/01/12 01:21:51;;;;;;;0.50;0.50;;;;;;;5.68;78.08;97211.22;29395;209;63009;-57
2023/01/12 01:22:22;;;;;;;0.50;0.50;;;;;;;5.71;77.75;97211.50;29395;197;63009;-57
2023/01/12 01:22:53;;;;;;;0.50;0.50;;;;;;;5.70;77.77;97206.38;29395;225;63004;-56
2023/01/12 01:23:31;;;;;;;0.50;0.50;;;;;;;5.67;77.75;97206.88;29394;314;64013;-57
2023/01/12 01:24:03;;;;;;;0.52;0.52;;;;;;;5.69;77.92;97205.56;29395;239;63004;-57
2023/01/12 01:24:34;;;;;;;0.68;0.68;;;;;;;5.69;77.36;97215.53;29395;200;63013;-57
2023/01/12 01:25:06;;;;;;;0.60;0.60;;;;;;;5.66;77.62;97218.72;29395;232;63004;-56
2023/01/12 01:25:37;;;;;;;0.50;0.50;;;;;;;5.63;77.87;97221.91;29395;240;63008;-57
2023/01/12 01:26:12;;;;;;;0.50;0.50;;;;;;;5.57;78.24;97217.53;29395;222;63005;-55
2023/01/12 01:26:43;;;;;;;0.50;0.50;;;;;;;5.61;78.27;97218.66;29395;197;63009;-57
2023/01/12 01:27:15;;;;;;;0.50;0.50;;;;;;;5.56;78.42;97219.41;29395;241;63005;-57
2023/01/12 01:27:46;;;;;;;0.50;0.50;;;;;;;5.60;78.12;97219.72;29395;205;63009;-56
2023/01/12 01:28:18;;;;;;;0.60;0.60;;;;;;;5.60;78.20;97217.03;29394;196;64009;-58
2023/01/12 01:28:50;;;;;;;0.50;0.50;;;;;;;5.66;78.09;97210.66;29395;203;63009;-58
2023/01/12 01:29:22;;;;;;;0.57;0.57;;;;;;;5.67;77.81;97217.66;29395;252;63005;-56
2023/01/12 01:29:53;;;;;;;0.50;0.50;;;;;;;5.66;77.71;97221.41;29395;235;63009;-57
2023/01/12 01:30:25;;;;;;;0.60;0.60;;;;;;;5.62;77.89;97209.53;29395;241;63004;-56
2023/01/12 01:31:08;;;;;;;0.50;0.50;;;;;;;5.61;78.48;97218.66;29395;196;63009;-57
2023/01/12 01:31:39;;;;;;;0.50;0.50;;;;;;;5.59;78.44;97221.59;29395;208;63004;-57
2023/01/12 01:32:10;;;;;;;0.50;0.50;;;;;;;5.56;78.53;97226.69;29395;233;63009;-57
2023/01/12 01:32:42;;;;;;;0.50;0.50;;;;;;;5.55;78.45;97230.44;29394;222;64009;-56
2023/01/12 01:33:14;;;;;;;0.50;0.50;;;;;;;5.53;78.60;97228.03;29395;245;63008;-57
2023/01/12 01:33:46;;;;;;;0.50;0.50;;;;;;;5.55;78.86;97231.25;29395;236;63015;-57
2023/01/12 01:34:17;;;;;;;0.60;0.60;;;;;;;5.55;78.69;97233.13;29394;202;64014;-57
2023/01/12 01:34:48;;;;;;;0.50;0.50;;;;;;;5.54;79.02;97226.16;29395;209;63005;-56
2023/01/12 01:35:19;;;;;;;0.60;0.60;;;;;;;5.53;78.55;97232.59;29394;232;64013;-58
2023/01/12 01:35:51;;;;;;;0.50;0.50;;;;;;;5.54;78.63;97221.56;29395;206;63010;-56
2023/01/12 01:36:23;;;;;;;0.50;0.50;;;;;;;5.58;78.79;97224.56;29395;197;63009;-57
2023/01/12 01:36:54;;;;;;;0.50;0.50;;;;;;;5.58;78.52;97224.56;29395;239;63005;-56
2023/01/12 01:37:27;;;;;;;0.50;0.50;;;;;;;5.56;78.67;97222.12;29395;266;63009;-59
2023/01/12 01:38:03;;;;;;;0.50;0.50;;;;;;;5.60;78.03;97228.63;29395;210;63004;-56
2023/01/12 01:38:34;;;;;;;0.50;0.50;;;;;;;5.61;77.97;97226.75;29395;204;63009;-57
2023/01/12 01:39:05;;;;;;;0.60;0.60;;;;;;;5.56;78.14;97226.69;29395;246;63009;-56
2023/01/12 01:39:37;;;;;;;0.50;0.50;;;;;;;5.59;78.06;97227.00;29394;253;64013;-58
2023/01/12 01:40:09;;;;;;;0.50;0.50;;;;;;;5.63;77.94;97224.63;29395;259;63004;-57
2023/01/12 01:40:42;;;;;;;0.50;0.50;;;;;;;5.63;77.78;97228.13;29395;199;63008;-60
2023/01/12 01:41:30;;;;;;;0.50;0.50;;;;;;;5.70;77.85;97222.53;29395;197;63005;-57
2023/01/12 01:42:02;;;;;;;0.50;0.50;;;;;;;5.64;77.49;97235.13;29395;216;63018;-57
2023/01/12 01:42:33;;;;;;;0.50;0.50;;;;;;;5.62;77.79;97220.28;29395;216;63005;-58
2023/01/12 01:43:04;;;;;;;0.50;0.50;;;;;;;5.60;77.84;97222.41;29395;202;63009;-56
2023/01/12 01:43:58;;;;;;;0.50;0.50;;;;;;;5.55;78.18;97231.25;29395;206;63005;-56
2023/01/12 01:44:48;;;;;;;0.50;0.50;;;;;;;5.57;78.19;97223.75;29395;217;63004;-57
2023/01/12 01:45:20;;;;;;;0.50;0.50;;;;;;;5.58;78.41;97229.94;29394;220;64013;-58
2023/01/12 01:46:12;;;;;;;0.50;0.50;;;;;;;5.54;78.65;97228.84;29395;229;63004;-57
2023/01/12 01:46:54;;;;;;;0.60;0.60;;;;;;;5.52;78.46;97231.78;29395;234;63009;-57
2023/01/12 01:47:40;;;;;;;0.50;0.50;;;;;;;5.59;78.42;97231.56;29395;263;63004;-58
2023/01/12 01:48:15;;;;;;;0.50;0.50;;;;;;;5.60;77.92;97227.81;29395;243;63008;-57
2023/01/12 01:48:47;;;;;;;0.50;0.50;;;;;;;5.59;78.01;97226.19;29395;324;63005;-56
2023/01/12 01:49:36;;;;;;;0.50;0.50;;;;;;;5.49;78.60;97220.69;29395;233;63009;-57
2023/01/12 01:50:27;;;;;;;0.50;0.50;;;;;;;5.51;78.35;97232.03;29395;197;63005;-59
2023/01/12 01:51:06;;;;;;;0.52;0.52;;;;;;;5.52;78.65;97230.97;29416;249;64013;-57
2023/01/12 01:51:38;;;;;;;0.50;0.50;;;;;;;5.51;78.61;97234.72;29395;229;63016;-57
2023/01/12 01:52:18;;;;;;;0.50;0.50;;;;;;;5.49;78.97;97231.47;29395;210;63009;-58
2023/01/12 01:52:55;;;;;;;0.60;0.60;;;;;;;5.52;78.54;97225.59;29417;197;63004;-58
2023/01/12 01:53:31;;;;;;;0.50;0.50;;;;;;;5.56;78.87;97232.06;29395;232;63009;-56
2023/01/12 01:54:03;;;;;;;0.50;0.50;;;;;;;5.60;78.29;97238.56;29395;276;63004;-71
2023/01/12 01:54:40;;;;;;;0.60;0.60;;;;;;;5.60;78.18;97228.63;29395;239;63023;-57
2023/01/12 01:55:19;;;;;;;0.60;0.60;;;;;;;5.57;78.45;97228.31;29395;258;63004;-57
2023/01/12 01:56:01;;;;;;;0.50;0.50;;;;;;;5.54;78.45;97228.84;29395;284;63018;-57
2023/01/12 01:56:36;;;;;;;0.50;0.50;;;;;;;5.52;78.53;97231.78;29394;203;64009;-57
2023/01/12 01:57:09;;;;;;;0.55;0.55;;;;;;;5.62;78.04;97233.75;29395;278;63009;-56
2023/01/12 01:57:58;;;;;;;0.50;0.50;;;;;;;5.63;77.74;97238.06;29395;240;63005;-57
2023/01/12 01:58:43;;;;;;;0.95;0.95;;;;;;;5.68;78.10;97227.34;29395;200;63009;-58
2023/01/12 01:59:21;;;;;;;0.50;0.50;;;;;;;5.66;77.79;97229.50;29395;254;63005;-58
2023/01/12 01:59:56;;;;;;;0.50;0.50;;;;;;;5.68;77.88;97235.44;29394;209;64013;-56
2023/01/12 02:00:27;;;;;;;0.50;0.50;;;;;;;5.67;77.61;97234.63;29395;210;63004;-57
2023/01/12 02:00:58;;;;;;;0.60;0.60;;;;;;;5.68;78.12;97238.12;29394;244;64013;-58
2023/01/12 02:01:30;;;;;;;0.50;0.50;;;;;;;5.68;77.89;97230.88;29395;198;63004;-57
2023/01/12 02:02:03;;;;;;;0.50;0.50;;;;;;;5.65;78.01;97230.56;29395;223;63009;-57
2023/01/12 02:02:35;;;;;;;0.50;0.50;;;;;;;5.62;78.19;97231.06;29394;300;64008;-57
2023/01/12 02:03:09;;;;;;;0.50;0.50;;;;;;;5.62;78.28;97236.44;29395;205;63009;-58
2023/01/12 02:03:41;;;;;;;0.50;0.50;;;;;;;5.63;78.41;97228.13;29395;237;63005;-57
2023/01/12 02:04:13;;;;;;;0.50;0.50;;;;;;;5.63;78.76;97235.38;29395;271;63009;-57
2023/01/12 02:04:44;;;;;;;0.50;0.50;;;;;;;5.62;78.53;97236.44;29395;207;63005;-57
2023/01/12 02:05:19;;;;;;;0.50;0.50;;;;;;;5.60;78.67;97238.56;29394;217;64013;-67
2023/01/12 02:05:51;;;;;;;0.50;0.50;;;;;;;5.56;78.77;97232.88;29394;253;64009;-57
2023/01/12 02:06:25;;;;;;;0.50;0.50;;;;;;;5.57;78.63;97228.31;29394;233;64013;-57
2023/01/12 02:06:57;;;;;;;0.50;0.50;;;;;;;5.58;79.02;97224.56;29395;242;63005;-57
2023/01/12 02:07:29;;;;;;;0.50;0.50;;;;;;;5.56;79.21;97229.38;29394;218;64013;-57
2023/01/12 02:08:29;;;;;;;0.50;0.50;;;;;;;5.55;79.00;97230.44;29395;234;63004;-58
2023/01/12 02:09:14;;;;;;;0.50;0.50;;;;;;;5.55;79.09;97235.81;29395;208;63009;-58
2023/01/12 02:09:45;;;;;;;0.50;0.50;;;;;;;5.56;78.92;97232.06;29395;218;63004;-57
2023/01/12 02:10:18;;;;;;;0.50;0.50;;;;;;;5.54;79.45;97228.84;29394;196;64013;-57
2023/01/12 02:10:52;;;;;;;0.50;0.50;;;;;;;5.62;78.45;97236.44;29395;220;63005;-57
2023/01/12 02:17:36;;;;;;;0.50;0.50;;;;;;;5.64;78.25;97229.75;29395;280;63009;-57
2023/01/12 02:18:42;;;;;;;0.50;0.50;;;;;;;5.60;78.23;97220.53;29417;217;63027;-57
2023/01/12 02:19:56;;;;;;;0.60;0.60;;;;;;;5.58;79.08;97221.88;29395;253;63005;-57
2023/01/12 02:21:19;;;;;;;0.50;0.50;;;;;;;5.58;78.60;97219.97;29394;241;64013;-57
2023/01/12 02:22:53;;;;;;;0.60;0.60;;;;;;;5.63;78.45;97221.91;29416;202;64009;-56
2023/01/12 02:24:06;;;;;;;0.50;0.50;;;;;;;5.64;78.24;97204.69;29395;196;63018;-57
2023/01/12 02:24:55;;;;;;;;;;;;;;;5.62;78.28;97199.56;29996;983;6000;-57
2023/01/12 02:25:57;;;;;;;0.50;0.50;;;;;;;5.62;77.92;97198.75;29400;218;63004;-57
2023/01/12 02:27:04;;;;;;;0.60;0.60;;;;;;;5.58;78.72;97203.03;29417;240;63017;-57
2023/01/12 02:28:23;;;;;;;0.60;0.60;;;;;;;5.56;78.46;97197.06;29394;224;64013;-59
2023/01/12 02:29:35;;;;;;;0.60;0.60;;;;;;;5.60;78.38;97204.41;29395;236;63005;-59
2023/01/12 02:30:48;;;;;;;0.60;0.60;;;;;;;5.60;78.02;97206.28;29417;202;63009;-58
2023/01/12 02:31:48;;;;;;;0.60;0.60;;;;;;;5.57;78.46;97201.38;29417;237;63009;-59
2023/01/12 02:32:47;;;;;;;0.60;0.60;;;;;;;5.53;78.13;97211.87;29395;285;63004;-57
2023/01/12 02:33:46;;;;;;;0.50;0.50;;;;;;;5.58;78.08;97197.63;29394;238;64014;-58
2023/01/12 02:34:53;;;;;;;0.60;0.60;;;;;;;5.61;77.78;97189.06;29395;205;63005;-57
2023/01/12 02:35:33;;;;;;;0.60;0.60;;;;;;;5.62;77.53;97193.38;29395;211;63027;-55
2023/01/12 02:36:32;;;;;;;0.50;0.50;;;;;;;5.60;77.91;97187.44;29395;236;63005;-57
2023/01/12 02:37:47;;;;;;;0.50;0.50;;;;;;;5.55;77.79;97187.38;29394;234;64013;-57
2023/01/12 02:38:48;;;;;;;0.60;0.60;;;;;;;5.56;77.86;97189.81;29395;235;63009;-56
2023/01/12 02:39:32;;;;;;;0.60;0.60;;;;;;;5.74;77.56;97191.34;29416;202;64006;-58
2023/01/12 02:40:13;;;;;;;0.60;0.60;;;;;;;5.82;77.18;97187.38;29395;279;63004;-58
2023/01/12 02:42:39;;;;;;;0.60;0.60;;;;;;;5.79;77.16;97175.25;29417;215;63009;-56
2023/01/12 02:42:53;;;;;;;0.60;0.60;;;;;;;5.72;77.08;97177.31;29395;226;63005;-57
2023/01/12 02:43:34;;;;;;;0.50;0.50;;;;;;;5.71;77.50;97176.53;29394;263;64013;-57
2023/01/12 02:44:08;;;;;;;;;;;;;;;5.68;77.30;97177.03;29996;983;6000;-57
2023/01/12 02:44:57;;;;;;;0.60;0.60;;;;;;;5.64;77.75;97177.78;29400;282;63004;-55
2023/01/12 02:45:56;;;;;;;0.60;0.60;;;;;;;5.68;77.76;97170.81;29395;202;63009;-55
2023/01/12 02:46:30;;;;;;;0.50;0.50;;;;;;;5.64;77.93;97170.53;29395;233;63004;-56
2023/01/12 02:47:06;;;;;;;0.60;0.60;;;;;;;5.62;77.95;97161.06;29395;291;63008;-55
2023/01/12 02:48:18;;;;;;;0.60;0.60;;;;;;;5.57;78.06;97164.53;29395;217;63004;-56
2023/01/12 02:49:09;;;;;;;0.50;0.50;;;;;;;5.55;77.96;97165.84;29394;259;64014;-56
2023/01/12 02:49:47;;;;;;;0.60;0.60;;;;;;;5.52;78.41;97166.37;29417;231;63005;-58
2023/01/12 02:50:46;;;;;;;0.50;0.50;;;;;;;5.49;78.28;97161.50;29395;202;63009;-58
2023/01/12 02:51:28;;;;;;;0.50;0.50;;;;;;;5.50;78.50;97163.13;29395;224;63005;-58
2023/01/12 02:52:05;;;;;;;0.60;0.60;;;;;;;5.49;78.46;97156.94;29395;233;63009;-57
2023/01/12 02:52:39;;;;;;;0.50;0.50;;;;;;;5.51;78.52;97160.19;29395;207;63004;-58
2023/01/12 02:53:41;;;;;;;0.50;0.50;;;;;;;5.52;78.11;97155.59;29395;249;63009;-58
2023/01/12 02:54:18;;;;;;;0.52;0.52;;;;;;;5.46;78.60;97157.44;29416;215;64008;-58
2023/01/12 02:54:52;;;;;;;0.60;0.60;;;;;;;5.50;78.60;97152.34;29395;236;63008;-57
2023/01/12 02:55:28;;;;;;;0.50;0.50;;;;;;;5.53;78.21;97151.84;29395;255;63005;-57
2023/01/12 02:56:06;;;;;;;0.60;0.60;;;;;;;5.53;78.04;97154.53;29395;271;63015;-55
2023/01/12 02:56:50;;;;;;;0.60;0.60;;;;;;;5.56;78.06;97145.94;29395;198;63005;-56
2023/01/12 02:57:24;;;;;;;0.60;0.60;;;;;;;5.63;77.47;97143.84;29395;226;63019;-56
2023/01/12 02:57:56;;;;;;;0.50;0.50;;;;;;;5.60;77.58;97144.34;29395;197;63005;-56
2023/01/12 02:58:30;;;;;;;0.60;0.60;;;;;;;5.58;77.49;97144.63;29395;234;63018;-57
2023/01/12 02:59:08;;;;;;;0.50;0.50;;;;;;;5.63;77.55;97146.53;29395;206;63005;-55
2023/01/12 02:59:44;;;;;;;1.55;1.25;;;;;;;5.66;77.46;97143.34;29394;235;64013;-57
2023/01/12 03:00:17;;;;;;;0.60;0.60;;;;;;;5.67;77.79;97142.28;29395;211;63010;-55
2023/01/12 03:00:54;;;;;;;0.60;0.60;;;;;;;5.60;77.32;97141.66;29395;215;63009;-66
2023/01/12 03:01:27;;;;;;;0.60;0.60;;;;;;;5.56;77.72;97140.53;29395;239;63013;-56
2023/01/12 03:02:10;;;;;;;0.50;0.50;;;;;;;5.54;77.52;97143.53;29394;201;64013;-56
2023/01/12 03:02:42;;;;;;;0.50;0.50;;;;;;;5.51;78.07;97145.91;29395;248;63005;-57
2023/01/12 03:03:16;;;;;;;0.50;0.50;;;;;;;5.48;78.49;97151.78;29395;203;63009;-57
2023/01/12 03:03:52;;;;;;;0.57;0.57;;;;;;;5.49;78.22;97146.16;29395;253;63008;-56
2023/01/12 03:04:30;;;;;;;0.60;0.60;;;;;;;5.52;77.94;97137.59;29394;236;64013;-56
2023/01/12 03:05:01;;;;;;;0.55;0.55;;;;;;;5.51;78.13;97138.66;29394;222;64009;-58
2023/01/12 03:05:33;;;;;;;0.55;0.55;;;;;;;5.50;78.10;97133.50;29395;223;63016;-56
2023/01/12 03:06:06;;;;;;;0.50;0.50;;;;;;;5.48;78.32;97139.16;29395;212;63005;-58
2023/01/12 03:07:05;;;;;;;0.60;0.60;;;;;;;5.46;78.35;97137.78;29395;222;63009;-58
2023/01/12 03:07:43;;;;;;;0.60;0.60;;;;;;;5.48;78.14;97132.97;29395;203;63004;-57
2023/01/12 03:08:17;;;;;;;0.60;0.60;;;;;;;5.47;78.20;97131.34;29395;196;63009;-58
2023/01/12 03:08:50;;;;;;;0.60;0.60;;;;;;;5.52;78.36;97128.69;29394;264;64009;-58
2023/01/12 03:09:30;;;;;;;0.57;0.57;;;;;;;5.54;78.29;97131.94;29395;258;63008;-57